Time;durP1;ratioP1;P1;durP2;ratioP2;P2;SDS_P1;SDS_P2;PMS_P1;PMS_P2;Temp;Humidity;BMP_temperature;BMP_pressure;BME280_temperature;BME280_humidity;BME280_pressure;Samples;Min_cycle;Max_cycle;Signal;HPM_P1;HPM_P2
2023/07/12 00:00:44;;;;;;;;;5.33;3.67;;;;;28.88;40.01;101122.84;5098698;27;45426;-78
2023/07/12 00:03:10;;;;;;;;;3.33;3.33;;;;;28.90;40.57;101133.31;5097983;27;45552;-78
2023/07/12 00:05:37;;;;;;;;;3.67;3.67;;;;;28.85;40.53;101121.44;5098931;27;45564;-78
2023/07/12 00:08:05;;;;;;;;;4.67;3.67;;;;;28.91;40.31;101116.22;5099402;27;45482;-77
2023/07/12 00:10:34;;;;;;;;;3.00;3.00;;;;;28.91;40.26;101114.34;5097231;27;45540;-78
2023/07/12 00:13:00;;;;;;;;;3.00;2.33;;;;;28.87;40.65;101098.94;5098351;27;45434;-78
2023/07/12 00:15:29;;;;;;;;;4.33;3.67;;;;;28.90;40.14;101117.25;5098766;27;45414;-79
2023/07/12 00:17:55;;;;;;;;;4.67;3.00;;;;;28.92;40.25;101113.31;5112595;27;46233;-78
2023/07/12 00:20:26;;;;;;;;;4.00;4.00;;;;;28.88;40.31;101105.97;5097115;27;45312;-79
2023/07/12 00:22:53;;;;;;;;;4.67;4.00;;;;;28.90;40.37;101112.72;5113129;27;45554;-78
2023/07/12 00:25:21;;;;;;;;;4.00;4.00;;;;;28.90;40.42;101115.41;5098064;27;45493;-78
2023/07/12 00:27:47;;;;;;;;;5.33;3.00;;;;;28.92;40.65;101117.84;5098247;27;45623;-78
2023/07/12 00:30:18;;;;;;;;;7.00;5.67;;;;;28.85;40.27;101107.22;5084565;27;45439;-78
2023/07/12 00:32:48;;;;;;;;;4.00;4.00;;;;;28.84;40.76;101110.91;5097945;27;45331;-79
2023/07/12 00:35:18;;;;;;;;;5.33;3.67;;;;;28.94;40.75;101118.44;5098720;27;45505;-78
2023/07/12 00:37:44;;;;;;;;;4.00;4.00;;;;;28.91;40.75;101116.22;5097104;27;46161;-78
2023/07/12 00:40:59;;;;;;;;;4.67;3.00;;;;;28.84;40.33;101106.41;5097280;27;45459;-79
2023/07/12 00:43:26;;;;;;;;;3.00;3.00;;;;;28.92;40.70;101131.25;5093538;27;45385;-78
2023/07/12 00:45:54;;;;;;;;;6.00;3.00;;;;;28.87;40.25;101123.88;5091163;27;45400;-77
2023/07/12 00:48:20;;;;;;;;;7.00;4.00;;;;;28.93;40.46;101128.38;5094395;27;45394;-78
2023/07/12 00:50:48;;;;;;;;;3.00;3.00;;;;;28.90;40.43;101118.09;5096628;27;45669;-78
2023/07/12 00:53:20;;;;;;;;;4.67;3.00;;;;;28.95;40.27;101123.59;5087995;27;45362;-78
2023/07/12 00:56:01;;;;;;;;;4.00;4.00;;;;;28.92;40.79;101118.69;5096898;27;45526;-78
2023/07/12 00:58:33;;;;;;;;;4.33;4.33;;;;;28.96;40.41;101132.47;5097912;27;45551;-78
2023/07/12 01:01:02;;;;;;;;;2.00;2.00;;;;;28.89;40.22;101121.78;5093196;27;45432;-78
2023/07/12 01:03:33;;;;;;;;;3.67;3.33;;;;;28.96;40.94;101119.06;5089135;27;45277;-77
2023/07/12 01:06:02;;;;;;;;;4.00;4.00;;;;;28.97;40.42;101118.00;5101281;27;45454;-79
2023/07/12 01:08:29;;;;;;;;;2.33;2.33;;;;;28.91;40.50;101114.34;5096453;27;45610;-78
2023/07/12 01:10:56;;;;;;;;;4.33;3.00;;;;;28.94;40.61;101119.28;5097850;27;45339;-78
2023/07/12 01:13:24;;;;;;;;;2.00;2.00;;;;;28.96;40.81;101127.91;5097147;27;45394;-79
2023/07/12 01:15:52;;;;;;;;;4.67;3.67;;;;;28.94;40.49;101129.97;5098472;27;46179;-78
2023/07/12 01:18:17;;;;;;;;;5.67;2.00;;;;;28.93;40.64;101120.31;5096243;27;46518;-78
2023/07/12 01:20:44;;;;;;;;;4.00;4.00;;;;;28.92;40.48;101117.84;5097435;27;45451;-78
2023/07/12 01:23:09;;;;;;;;;1.33;1.33;;;;;28.98;40.09;101127.69;5098077;27;45454;-78
2023/07/12 01:25:42;;;;;;;;;4.67;3.00;;;;;28.99;40.20;101131.19;5109322;27;45667;-77
2023/07/12 01:28:08;;;;;;;;;3.00;3.00;;;;;28.97;40.46;101128.72;5097519;27;46394;-78
2023/07/12 01:30:34;;;;;;;;;2.33;2.33;;;;;28.88;40.85;101125.53;5082555;27;45900;-78
2023/07/12 01:33:01;;;;;;;;;3.33;3.33;;;;;28.95;40.76;101133.47;5093224;27;45498;-78
2023/07/12 01:35:27;;;;;;;;;5.00;5.00;;;;;28.91;40.50;101126.94;5096649;27;45667;-78
2023/07/12 01:37:52;;;;;;;;;4.00;4.00;;;;;28.96;40.53;101129.78;5097351;27;46577;-78
2023/07/12 01:40:19;;;;;;;;;3.67;3.67;;;;;28.93;40.47;101124.84;5088845;27;45469;-78
2023/07/12 01:42:44;;;;;;;;;3.67;3.00;;;;;28.93;40.73;101123.00;5097634;27;45275;-79
2023/07/12 01:45:10;;;;;;;;;2.67;2.67;;;;;28.95;40.45;101125.44;5112873;27;45304;-78
2023/07/12 01:47:36;;;;;;;;;6.67;4.00;;;;;28.94;40.83;101121.13;5096988;27;46526;-78
2023/07/12 01:50:02;;;;;;;;;2.00;2.00;;;;;28.96;40.38;101130.56;5097757;27;45378;-76
2023/07/12 01:52:27;;;;;;;;;1.67;1.67;;;;;28.96;40.35;101127.09;5096024;27;45431;-77
2023/07/12 01:54:52;;;;;;;;;3.00;3.00;;;;;28.92;40.25;101117.84;5113085;27;45547;-77
2023/07/12 01:57:18;;;;;;;;;1.67;1.00;;;;;28.92;40.68;101123.22;5097161;27;46528;-78
2023/07/12 01:59:43;;;;;;;;;3.67;2.33;;;;;28.96;40.44;101135.13;5112522;27;45414;-77
2023/07/12 02:02:09;;;;;;;;;4.00;2.67;;;;;28.71;40.39;101103.84;5096941;27;45408;-78
2023/07/12 02:04:35;;;;;;;;;3.67;3.00;;;;;28.81;40.77;101116.72;5096537;27;45575;-78
2023/07/12 02:07:03;;;;;;;;;3.67;3.00;;;;;28.96;40.80;101135.94;5090020;27;47278;-78
2023/07/12 02:09:34;;;;;;;;;1.33;1.33;;;;;28.94;40.34;101132.66;5096215;27;45347;-77
2023/07/12 02:11:59;;;;;;;;;3.00;3.00;;;;;28.92;40.55;101125.88;5096635;27;45393;-78
2023/07/12 02:14:25;;;;;;;;;2.00;2.00;;;;;28.91;40.49;101126.94;5107927;27;45454;-78
2023/07/12 02:16:50;;;;;;;;;4.33;4.33;;;;;28.90;40.89;101126.13;5098122;27;46866;-78
2023/07/12 02:19:15;;;;;;;;;1.33;1.33;;;;;28.93;40.39;101138.25;5109887;27;45518;-78
2023/07/12 02:21:41;;;;;;;;;2.00;1.33;;;;;28.84;40.59;101127.81;5101332;27;45280;-77
2023/07/12 02:24:06;;;;;;;;;2.67;2.67;;;;;28.89;40.36;101137.03;5095824;27;45704;-77
2023/07/12 02:26:31;;;;;;;;;3.67;2.00;;;;;28.93;40.67;101152.47;5095044;27;46243;-78
2023/07/12 02:28:57;;;;;;;;;3.33;3.00;;;;;28.90;40.62;101134.16;5092251;27;45414;-78
2023/07/12 02:31:24;;;;;;;;;2.00;2.00;;;;;28.92;40.33;101141.97;5094868;27;45477;-78
2023/07/12 02:33:50;;;;;;;;;2.33;2.33;;;;;28.97;40.40;101150.16;5097363;27;45543;-78
2023/07/12 02:36:16;;;;;;;;;3.33;2.00;;;;;28.92;40.62;101144.63;5096263;27;46443;-78
2023/07/12 02:38:42;;;;;;;;;2.00;2.00;;;;;28.89;40.31;101139.72;5078366;27;45555;-78
2023/07/12 02:41:07;;;;;;;;;2.67;2.00;;;;;28.90;40.58;101133.31;5098564;27;45379;-78
2023/07/12 02:43:34;;;;;;;;;2.33;2.33;;;;;28.94;40.09;101137.19;5096665;27;45502;-78
2023/07/12 02:46:00;;;;;;;;;3.33;1.33;;;;;28.88;40.13;101128.19;5106619;27;48111;-78
2023/07/12 02:48:25;;;;;;;;;2.00;2.00;;;;;28.94;40.32;101140.69;5091754;27;45514;-78
2023/07/12 02:50:51;;;;;;;;;4.00;2.67;;;;;28.93;40.67;101144.44;5096570;27;45359;-78
2023/07/12 02:53:17;;;;;;;;;3.00;2.00;;;;;28.96;40.53;101152.00;5111630;27;45381;-78
2023/07/12 02:55:43;;;;;;;;;3.00;2.00;;;;;28.91;40.33;101148.38;5111087;27;45547;-78
2023/07/12 02:58:08;;;;;;;;;6.67;3.00;;;;;28.96;39.99;101154.69;5094944;27;45655;-78
2023/07/12 03:00:34;;;;;;;;;1.00;1.00;;;;;28.97;40.25;101147.47;5095765;27;45434;-78
2023/07/12 03:02:59;;;;;;;;;1.00;1.00;;;;;28.97;40.23;101152.81;5095069;27;45767;-78
2023/07/12 03:05:25;;;;;;;;;5.33;2.00;;;;;28.94;40.61;101145.22;5096382;27;45505;-78
2023/07/12 03:07:53;;;;;;;;;1.00;1.00;;;;;28.89;40.56;101137.03;5096542;27;45457;-78
2023/07/12 03:10:19;;;;;;;;;5.33;2.00;;;;;28.98;40.47;101159.84;5096142;27;45442;-78
2023/07/12 03:12:44;;;;;;;;;2.00;2.00;;;;;28.90;40.45;101142.19;5096183;27;45540;-78
2023/07/12 03:15:11;;;;;;;;;1.00;1.00;;;;;28.98;40.68;101154.47;5100084;27;46493;-78
2023/07/12 03:17:38;;;;;;;;;1.33;1.33;;;;;28.94;40.27;101145.22;5094936;27;45451;-78
2023/07/12 03:20:03;;;;;;;;;3.67;2.33;;;;;28.96;40.05;101154.69;5094297;27;45647;-78
2023/07/12 03:22:29;;;;;;;;;3.00;1.67;;;;;28.93;40.22;101140.94;5096184;27;45599;-78
2023/07/12 03:24:55;;;;;;;;;2.00;2.00;;;;;28.98;40.50;101157.16;5093927;27;46583;-78
2023/07/12 03:27:22;;;;;;;;;3.33;3.00;;;;;28.99;40.42;101169.50;5105983;27;45441;-79
2023/07/12 03:29:47;;;;;;;;;3.00;3.00;;;;;28.93;40.35;101155.16;5093270;27;45414;-78
2023/07/12 03:32:13;;;;;;;;;2.33;2.33;;;;;28.93;40.16;101151.63;5096000;27;45335;-78
2023/07/12 03:34:38;;;;;;;;;2.00;2.00;;;;;28.96;40.60;101156.56;5094218;27;46567;-78
2023/07/12 03:37:04;;;;;;;;;1.67;1.67;;;;;28.89;40.63;101150.41;5095792;27;45413;-78
2023/07/12 03:39:29;;;;;;;;;3.00;2.00;;;;;28.97;40.33;101168.91;5094740;27;45629;-78
2023/07/12 03:41:55;;;;;;;;;2.00;2.00;;;;;28.98;40.36;101165.19;5095587;27;45294;-78
2023/07/12 03:44:23;;;;;;;;;2.00;1.00;;;;;28.93;40.43;101162.34;5094652;27;45385;-78
2023/07/12 03:46:48;;;;;;;;;1.00;1.00;;;;;28.92;40.38;101163.38;5095891;27;45378;-78
2023/07/12 03:49:13;;;;;;;;;1.67;1.33;;;;;28.96;39.98;101169.94;5111190;27;45466;-78
2023/07/12 03:51:39;;;;;;;;;2.33;2.00;;;;;28.95;39.90;101169.13;5094425;27;45403;-77
2023/07/12 03:54:04;;;;;;;;;2.00;2.00;;;;;28.95;40.12;101179.00;5095304;27;46244;-78
2023/07/12 03:56:29;;;;;;;;;1.33;1.33;;;;;28.91;40.14;101170.59;5110401;27;45463;-78
2023/07/12 03:58:55;;;;;;;;;2.67;2.67;;;;;28.92;40.64;101174.09;5094154;27;45435;-78
2023/07/12 04:01:21;;;;;;;;;3.00;3.00;;;;;28.92;40.47;101172.25;5093685;27;45359;-77
2023/07/12 04:03:47;;;;;;;;;3.00;3.00;;;;;28.96;40.51;101181.47;5110403;27;48207;-78
2023/07/12 04:06:13;;;;;;;;;2.00;2.00;;;;;28.94;40.36;101180.88;5095731;27;45532;-77
2023/07/12 04:08:39;;;;;;;;;3.00;2.00;;;;;28.93;40.26;101184.59;5094298;27;45454;-78
2023/07/12 04:11:06;;;;;;;;;3.00;2.00;;;;;28.95;40.46;101187.03;5095446;27;45547;-79
2023/07/12 04:13:32;;;;;;;;;3.33;1.67;;;;;28.87;40.66;101176.59;5091912;27;46717;-79
2023/07/12 04:16:01;;;;;;;;;3.00;3.00;;;;;28.93;40.09;101179.25;5095519;27;45530;-78
2023/07/12 04:18:28;;;;;;;;;2.33;2.33;;;;;28.92;40.21;101177.59;5095385;27;45280;-78
2023/07/12 04:20:55;;;;;;;;;3.00;3.00;;;;;28.90;40.13;101181.53;5094201;27;45552;-78
2023/07/12 04:23:21;;;;;;;;;1.00;1.00;;;;;28.95;40.25;101184.38;5095156;27;46352;-78
2023/07/12 04:25:47;;;;;;;;;2.00;1.00;;;;;28.95;40.06;101190.56;5094692;27;45709;-78
2023/07/12 04:28:13;;;;;;;;;2.33;2.00;;;;;28.93;40.19;101181.09;5092225;27;45316;-78
2023/07/12 04:30:38;;;;;;;;;2.67;2.00;;;;;28.94;40.22;101188.06;5078283;27;45677;-78
2023/07/12 04:33:05;;;;;;;;;3.00;1.67;;;;;28.94;40.24;101193.44;5096357;27;45529;-78
2023/07/12 04:35:31;;;;;;;;;5.67;3.33;;;;;28.95;40.15;101197.75;5098966;27;45393;-78
2023/07/12 04:37:56;;;;;;;;;2.67;1.67;;;;;28.99;39.98;101200.84;5097650;27;45281;-78
2023/07/12 04:40:22;;;;;;;;;3.33;2.00;;;;;28.98;40.14;101204.53;5110320;27;45691;-78
2023/07/12 04:42:47;;;;;;;;;2.00;2.00;;;;;28.97;40.07;101206.38;5097239;27;47117;-78
2023/07/12 04:45:13;;;;;;;;;1.67;1.67;;;;;28.93;40.35;101203.34;5107379;27;45378;-78
2023/07/12 04:47:42;;;;;;;;;2.33;2.33;;;;;28.95;39.98;101203.13;5114785;27;45464;-78
2023/07/12 04:50:09;;;;;;;;;1.00;1.00;;;;;28.93;40.15;101206.03;5098891;27;45344;-77
2023/07/12 04:52:35;;;;;;;;;1.33;1.33;;;;;28.96;40.19;101205.56;5098881;27;45497;-78
2023/07/12 04:55:04;;;;;;;;;1.67;1.67;;;;;28.92;40.11;101199.03;5098255;27;45435;-78
2023/07/12 04:57:29;;;;;;;;;2.00;2.00;;;;;28.94;40.32;101207.66;5085999;27;45502;-78
2023/07/12 04:59:55;;;;;;;;;2.33;2.00;;;;;28.98;40.09;101218.75;5098568;27;45448;-78
2023/07/12 05:02:20;;;;;;;;;1.33;1.33;;;;;28.99;40.10;101216.91;5089788;27;47803;-78
2023/07/12 05:04:46;;;;;;;;;2.00;1.00;;;;;28.94;40.27;101209.50;5114259;27;45415;-78
2023/07/12 05:07:13;;;;;;;;;1.33;1.33;;;;;28.95;40.03;101216.50;5094761;27;45355;-77
2023/07/12 05:09:39;;;;;;;;;3.67;2.00;;;;;28.88;40.39;101211.22;5098108;27;45348;-78
2023/07/12 05:12:05;;;;;;;;;3.00;2.00;;;;;28.90;39.87;101216.34;5092831;27;45422;-78
2023/07/12 05:14:30;;;;;;;;;1.33;1.33;;;;;28.93;39.73;101223.94;5098136;27;45283;-78
2023/07/12 05:16:56;;;;;;;;;1.00;1.00;;;;;28.92;40.09;101228.47;5096200;27;45537;-78
2023/07/12 05:19:21;;;;;;;;;2.33;2.00;;;;;28.83;39.70;101216.41;5086581;27;45500;-79
2023/07/12 05:21:47;;;;;;;;;2.00;2.00;;;;;28.97;40.47;101238.53;5097233;27;46127;-79
2023/07/12 05:24:12;;;;;;;;;1.67;1.00;;;;;28.97;40.24;101243.88;5098092;27;45447;-75
2023/07/12 05:26:38;;;;;;;;;1.00;1.00;;;;;28.88;40.03;101229.97;5095429;27;45474;-80
2023/07/12 05:29:03;;;;;;;;;3.00;2.00;;;;;28.90;40.27;101235.91;5091090;27;45317;-78
2023/07/12 05:31:28;;;;;;;;;7.00;2.00;;;;;28.86;38.28;101242.72;5096095;27;45449;-79
2023/07/12 05:33:54;;;;;;;;;1.33;1.33;;;;;28.61;37.88;101255.06;5080990;27;45438;-80
2023/07/12 05:36:19;;;;;;;;;2.33;1.00;;;;;28.26;38.38;101234.03;5091705;27;45385;-79
2023/07/12 05:38:45;;;;;;;;;1.33;1.33;;;;;28.02;37.99;101242.56;5093310;27;45410;-81
2023/07/12 05:41:10;;;;;;;;;1.00;1.00;;;;;27.90;39.00;101249.59;5091401;27;45509;-81
2023/07/12 05:43:35;;;;;;;;;2.00;0.33;;;;;27.73;38.98;101261.56;5098079;27;45342;-78
2023/07/12 05:46:03;;;;;;;;;2.00;2.00;;;;;27.55;38.81;101254.19;5094437;27;45423;-86
2023/07/12 05:48:29;;;;;;;;;1.00;1.00;;;;;27.44;39.23;101263.66;5098880;27;45295;-81
2023/07/12 05:50:57;;;;;;;;;1.33;1.00;;;;;27.38;39.22;101261.78;5086687;27;46395;-84
2023/07/12 05:53:23;;;;;;;;;4.33;1.00;;;;;27.29;39.40;101253.19;5089576;27;46209;-85
2023/07/12 05:55:56;;;;;;;;;1.33;0.33;;;;;27.22;39.55;101252.38;5097738;27;45369;-84
2023/07/12 05:58:22;;;;;;;;;3.00;1.67;;;;;27.11;39.35;101257.28;5098034;27;45333;-85
2023/07/12 06:00:48;;;;;;;;;4.00;1.00;;;;;26.96;39.90;101249.44;5097013;27;45365;-87
2023/07/12 06:03:13;;;;;;;;;2.00;2.00;;;;;27.08;40.40;101257.69;5098511;27;45320;-86
2023/07/12 06:05:44;;;;;;;;;1.33;1.33;;;;;27.27;40.37;101265.94;5103014;27;45903;-88
2023/07/12 06:08:10;;;;;;;;;1.00;1.00;;;;;27.43;40.18;101259.31;5098271;27;45291;-87
2023/07/12 06:10:35;;;;;;;;;1.00;1.00;;;;;27.66;39.88;101266.09;5097823;27;46479;-87
2023/07/12 06:13:00;;;;;;;;;0.67;0.67;;;;;27.87;39.60;101258.84;5097540;27;45255;-88
2023/07/12 06:15:27;;;;;;;;;4.00;1.67;;;;;28.16;39.28;101266.56;5091493;27;45776;-88
2023/07/12 06:17:53;;;;;;;;;1.00;1.00;;;;;28.32;39.61;101262.59;5098185;27;45392;-89
2023/07/12 06:20:19;;;;;;;;;1.33;1.33;;;;;28.59;39.19;101272.38;5097575;27;45612;-89
2023/07/12 06:22:45;;;;;;;;;1.00;1.00;;;;;28.64;39.17;101272.53;5098448;27;45410;-88
2023/07/12 06:25:11;;;;;;;;;0.33;0.00;;;;;28.67;38.82;101268.63;5098541;27;45383;-88
2023/07/12 06:27:37;;;;;;;;;1.33;1.33;;;;;28.77;38.88;101281.53;5104158;27;45349;-88
2023/07/12 06:30:03;;;;;;;;;2.00;1.33;;;;;28.83;38.56;101286.03;5101123;27;45502;-88
2023/07/12 06:32:28;;;;;;;;;3.67;1.00;;;;;28.81;38.82;101285.41;5099267;27;45376;-89
2023/07/12 06:34:55;;;;;;;;;3.00;1.00;;;;;28.83;38.35;101292.19;5098777;27;45417;-89
2023/07/12 06:37:21;;;;;;;;;2.00;1.00;;;;;28.82;38.63;101293.22;5098046;27;45649;-88
2023/07/12 06:39:46;;;;;;;;;4.00;1.00;;;;;28.86;38.72;101301.63;5098070;27;45343;-88
2023/07/12 06:42:11;;;;;;;;;1.67;1.00;;;;;28.88;38.23;101306.78;5098327;27;45401;-89
2023/07/12 06:44:37;;;;;;;;;1.00;1.00;;;;;28.84;38.66;101309.06;5098168;27;45402;-88
2023/07/12 06:47:02;;;;;;;;;4.00;2.33;;;;;28.81;38.85;101296.94;5097965;27;45736;-87
2023/07/12 06:49:27;;;;;;;;;3.67;2.00;;;;;28.87;38.51;101305.16;5095016;27;45706;-87
2023/07/12 06:51:53;;;;;;;;;4.00;2.00;;;;;28.89;38.67;101319.13;5095466;27;45361;-87
2023/07/12 06:54:18;;;;;;;;;2.00;2.00;;;;;28.88;38.61;101312.16;5097174;27;45406;-87
2023/07/12 06:56:46;;;;;;;;;1.00;1.00;;;;;28.89;38.51;101311.09;5097730;27;45470;-87
2023/07/12 06:59:11;;;;;;;;;2.67;1.33;;;;;28.91;38.41;101306.38;5097457;27;46367;-88
2023/07/12 07:01:37;;;;;;;;;2.67;1.67;;;;;28.98;38.18;101315.19;5106271;27;45438;-87
2023/07/12 07:04:03;;;;;;;;;4.67;3.00;;;;;28.96;38.92;101318.03;5117682;27;45579;-88
2023/07/12 07:06:29;;;;;;;;;2.33;2.00;;;;;28.94;38.04;101316.63;5097982;27;45490;-88
2023/07/12 07:08:55;;;;;;;;;1.00;0.00;;;;;28.96;38.47;101325.28;5091171;27;47192;-87
2023/07/12 07:11:20;;;;;;;;;3.33;2.00;;;;;28.96;38.65;101318.03;5094302;27;46271;-85
2023/07/12 07:13:47;;;;;;;;;1.67;1.67;;;;;28.96;38.52;101322.59;5098243;27;45610;-87
2023/07/12 07:16:12;;;;;;;;;1.67;1.00;;;;;29.04;38.87;101334.91;5080931;27;45700;-87
2023/07/12 07:18:39;;;;;;;;;1.00;1.00;;;;;29.01;38.22;101327.31;5085401;27;48041;-88
2023/07/12 07:21:05;;;;;;;;;1.00;1.00;;;;;29.05;38.63;101336.53;5096651;27;45441;-87
2023/07/12 07:23:31;;;;;;;;;1.67;1.00;;;;;29.00;38.18;101331.00;5086903;27;45424;-87
2023/07/12 07:26:07;;;;;;;;;2.00;1.33;;;;;29.02;38.34;101335.13;5098819;27;45449;-85
2023/07/12 07:28:34;;;;;;;;;2.67;1.33;;;;;29.04;38.09;101340.28;5086963;27;45735;-85
2023/07/12 07:31:00;;;;;;;;;1.67;1.67;;;;;29.06;38.23;101340.88;5094540;27;45472;-86
2023/07/12 07:33:27;;;;;;;;;2.00;2.00;;;;;29.04;38.53;101332.25;5087800;27;45333;-87
2023/07/12 07:35:53;;;;;;;;;2.00;2.00;;;;;29.10;38.26;101350.13;5100563;27;45580;-86
2023/07/12 07:38:19;;;;;;;;;1.00;1.00;;;;;29.07;38.60;101342.50;5085733;27;47545;-86
2023/07/12 07:40:44;;;;;;;;;2.67;2.33;;;;;29.06;38.48;101344.38;5095990;27;45361;-86
2023/07/12 07:43:13;;;;;;;;;2.00;2.00;;;;;29.12;38.30;101347.25;5096750;27;45482;-86
2023/07/12 07:45:40;;;;;;;;;2.33;2.00;;;;;29.09;38.34;101347.66;5094338;27;45435;-86
2023/07/12 07:48:05;;;;;;;;;1.00;1.00;;;;;29.07;38.16;101351.34;5093661;27;46547;-87
2023/07/12 07:50:31;;;;;;;;;1.00;1.00;;;;;29.13;38.04;101356.91;5102577;27;45389;-86
2023/07/12 07:52:56;;;;;;;;;1.00;1.00;;;;;29.16;38.20;101364.53;5096981;27;45495;-86
2023/07/12 07:55:22;;;;;;;;;0.67;0.33;;;;;29.20;38.21;101362.25;5092070;27;45640;-86
2023/07/12 07:57:47;;;;;;;;;1.00;1.00;;;;;29.21;38.26;101355.84;5080507;27;45400;-86
2023/07/12 08:00:14;;;;;;;;;1.33;1.00;;;;;29.25;38.18;101365.09;5086253;27;45485;-86
2023/07/12 08:02:42;;;;;;;;;2.00;2.00;;;;;29.25;38.67;101355.19;5099858;27;45414;-86
2023/07/12 08:05:08;;;;;;;;;2.33;1.00;;;;;29.31;38.40;101368.75;5096292;27;45358;-86
2023/07/12 08:07:46;;;;;;;;;1.00;1.00;;;;;29.33;38.33;101366.69;5096111;27;47898;-86
2023/07/12 08:10:16;;;;;;;;;3.00;0.67;;;;;29.32;38.40;101368.53;5099260;27;45373;-87
2023/07/12 08:12:41;;;;;;;;;3.33;1.67;;;;;29.39;38.25;101373.84;5087938;27;45359;-86
2023/07/12 08:15:08;;;;;;;;;2.00;1.00;;;;;29.40;38.37;101372.81;5099171;27;45651;-87
2023/07/12 08:17:34;;;;;;;;;1.33;1.00;;;;;29.43;38.36;101377.75;5114409;27;47600;-87
2023/07/12 08:19:59;;;;;;;;;2.00;2.00;;;;;29.39;37.86;101360.44;5099522;27;45433;-87
2023/07/12 08:22:25;;;;;;;;;5.00;2.00;;;;;29.45;38.02;101361.44;5099073;27;45400;-87
2023/07/12 08:24:50;;;;;;;;;1.33;1.33;;;;;29.54;38.32;101378.03;5098607;27;45228;-85
2023/07/12 08:27:16;;;;;;;;;1.00;1.00;;;;;29.54;37.80;101380.72;5099650;27;45524;-87
2023/07/12 08:29:42;;;;;;;;;1.67;1.67;;;;;29.54;37.89;101372.69;5086406;27;45624;-88
2023/07/12 08:32:08;;;;;;;;;2.00;2.00;;;;;29.51;38.01;101372.09;5098445;27;45476;-87
2023/07/12 08:34:34;;;;;;;;;1.00;1.00;;;;;29.55;38.11;101379.69;5112342;27;45584;-87
2023/07/12 08:36:59;;;;;;;;;3.00;2.00;;;;;29.52;38.31;101373.75;5093132;27;45437;-88
2023/07/12 08:39:25;;;;;;;;;1.00;1.00;;;;;29.61;37.97;101378.84;5092510;27;45449;-87
2023/07/12 08:41:54;;;;;;;;;1.33;1.33;;;;;29.59;37.77;101378.22;5098505;27;45460;-86
2023/07/12 08:44:19;;;;;;;;;0.67;0.67;;;;;29.59;38.14;101372.84;5099233;27;45583;-81
2023/07/12 08:46:57;;;;;;;;;1.33;1.00;;;;;29.63;38.04;101380.25;5097654;27;46404;-81
2023/07/12 08:49:24;;;;;;;;;1.33;1.33;;;;;29.63;37.84;101376.75;5096322;27;46828;-79
2023/07/12 08:51:51;;;;;;;;;1.00;1.00;;;;;29.68;38.20;101373.41;5097241;27;45345;-79
2023/07/12 08:54:21;;;;;;;;;3.00;1.00;;;;;29.68;37.85;101379.59;5098249;27;45284;-78
2023/07/12 08:56:46;;;;;;;;;0.33;0.33;;;;;29.61;37.64;101376.94;5098468;27;46489;-79
2023/07/12 08:59:15;;;;;;;;;2.00;2.00;;;;;29.66;37.85;101391.56;5096913;27;45514;-78
2023/07/12 09:01:52;;;;;;;;;2.00;2.00;;;;;29.64;37.85;101391.78;5097206;27;45451;-78
2023/07/12 09:04:30;;;;;;;;;2.00;2.00;;;;;29.60;37.85;101393.28;5098111;27;45373;-78
2023/07/12 09:06:59;;;;;;;;;2.00;0.00;;;;;29.63;37.71;101400.88;5096660;27;48007;-78
2023/07/12 09:09:26;;;;;;;;;2.67;2.00;;;;;29.66;37.61;101404.97;5097778;27;45370;-78
2023/07/12 09:11:52;;;;;;;;;4.33;2.00;;;;;29.62;37.64;101391.19;5097776;27;45470;-78
2023/07/12 09:14:20;;;;;;;;;2.00;1.67;;;;;29.69;37.21;101401.88;5098009;27;45347;-84
2023/07/12 09:16:48;;;;;;;;;2.33;1.00;;;;;29.73;37.58;101409.28;5096133;27;47569;-84
2023/07/12 09:19:15;;;;;;;;;2.33;1.67;;;;;29.78;37.44;101413.16;5084941;27;45368;-83
2023/07/12 09:21:47;;;;;;;;;0.67;0.67;;;;;29.74;37.32;101402.84;5088401;27;45516;-83
2023/07/12 09:24:19;;;;;;;;;2.00;1.00;;;;;29.79;37.73;101406.75;5113968;27;45243;-84
2023/07/12 09:26:45;;;;;;;;;1.67;1.67;;;;;29.82;37.19;101407.13;5095464;27;46435;-85
2023/07/12 09:29:24;;;;;;;;;4.00;2.00;;;;;29.69;37.28;101383.91;5112669;27;45362;-84
2023/07/12 09:31:51;;;;;;;;;1.00;1.00;;;;;29.86;37.73;101412.88;5097982;27;45372;-84
2023/07/12 09:34:31;;;;;;;;;2.00;2.00;;;;;29.89;37.45;101411.63;5087113;27;45380;-83
2023/07/12 09:36:58;;;;;;;;;3.67;1.33;;;;;29.85;37.43;101403.19;5096544;27;46613;-84
2023/07/12 09:39:27;;;;;;;;;4.00;2.00;;;;;29.90;37.38;101407.91;5097952;27;45430;-84
2023/07/12 09:41:58;;;;;;;;;2.00;0.00;;;;;29.89;37.63;101415.13;5097512;27;45460;-84
2023/07/12 09:44:25;;;;;;;;;1.67;1.67;;;;;29.87;37.36;101402.97;5097047;27;45385;-84
2023/07/12 09:47:00;;;;;;;;;1.00;1.00;;;;;29.93;37.50;101412.81;5094729;27;46539;-83
2023/07/12 09:49:38;;;;;;;;;3.00;3.00;;;;;29.91;37.81;101415.72;5090022;27;45485;-84
2023/07/12 09:52:20;;;;;;;;;0.67;0.33;;;;;29.95;37.22;101418.78;5089950;27;45371;-84
2023/07/12 09:54:53;;;;;;;;;1.00;1.00;;;;;29.94;37.36;101419.81;5097615;27;45651;-84
2023/07/12 09:57:43;;;;;;;;;2.33;1.00;;;;;29.92;37.21;101406.63;5099941;27;47139;-84
2023/07/12 10:00:29;;;;;;;;;1.00;1.00;;;;;29.93;37.15;101410.13;5092659;27;45343;-85
2023/07/12 10:03:00;;;;;;;;;1.67;1.00;;;;;30.00;37.43;101420.81;5096573;27;45286;-83
2023/07/12 10:05:25;;;;;;;;;1.67;1.67;;;;;29.99;37.33;101425.34;5096213;27;45387;-84
2023/07/12 10:08:00;;;;;;;;;3.00;1.00;;;;;29.93;37.66;101420.84;5095530;27;45473;-84
2023/07/12 10:10:31;;;;;;;;;0.00;0.00;;;;;29.99;37.36;101427.19;5092173;27;45334;-84
2023/07/12 10:13:21;;;;;;;;;1.00;1.00;;;;;29.91;37.50;101409.53;5096869;27;45414;-84
2023/07/12 10:15:48;;;;;;;;;2.00;2.00;;;;;29.97;37.51;101430.13;5095167;27;45300;-83
2023/07/12 10:18:21;;;;;;;;;3.67;2.67;;;;;29.95;37.61;101424.94;5096981;27;45485;-84
2023/07/12 10:20:49;;;;;;;;;1.33;1.33;;;;;29.95;37.26;101424.16;5094628;27;45397;-84
2023/07/12 10:23:17;;;;;;;;;1.33;0.33;;;;;29.96;37.58;101431.97;5097269;27;45422;-84
2023/07/12 10:25:51;;;;;;;;;2.00;0.33;;;;;29.94;37.27;101430.56;5085265;27;45398;-84
2023/07/12 10:28:20;;;;;;;;;2.00;2.00;;;;;29.99;37.45;101430.72;5091642;27;47198;-84
2023/07/12 10:30:48;;;;;;;;;1.00;1.00;;;;;29.95;37.40;101422.28;5084250;27;45399;-84
2023/07/12 10:33:24;;;;;;;;;3.33;1.00;;;;;29.96;37.49;101417.72;5096494;27;45335;-84
2023/07/12 10:35:54;;;;;;;;;1.33;1.33;;;;;29.94;37.13;101412.59;5096855;27;45540;-84
2023/07/12 10:38:23;;;;;;;;;2.00;2.00;;;;;30.01;37.29;101425.94;5096310;27;45534;-85
2023/07/12 10:41:02;;;;;;;;;2.00;2.00;;;;;30.00;37.53;101416.28;5087402;27;45482;-84
2023/07/12 10:43:43;;;;;;;;;1.33;1.33;;;;;30.03;37.39;101417.69;5091710;27;45349;-84
2023/07/12 10:46:17;;;;;;;;;1.00;1.00;;;;;30.02;37.36;101416.84;5088934;27;45734;-84
2023/07/12 10:48:48;;;;;;;;;0.67;0.67;;;;;30.00;37.33;101412.75;5093840;27;46388;-84
2023/07/12 10:51:26;;;;;;;;;2.33;1.00;;;;;30.02;37.29;101406.13;5097008;27;45433;-79
2023/07/12 10:53:54;;;;;;;;;1.00;1.00;;;;;30.02;37.32;101411.50;5083729;27;45381;-81
2023/07/12 10:56:52;;;;;;;;;2.00;0.00;;;;;30.01;34.92;101409.84;5094566;27;45355;-76
2023/07/12 10:59:32;;;;;;;;;2.00;0.00;;;;;29.96;34.59;101410.50;5112125;27;45560;-76
2023/07/12 11:02:04;;;;;;;;;0.00;0.00;;;;;29.93;33.98;101404.75;5095959;27;44782;-77
2023/07/12 11:04:29;;;;;;;;;0.33;0.00;;;;;29.90;33.22;101414.06;5096319;27;45370;-75
2023/07/12 11:07:09;;;;;;;;;1.00;1.00;;;;;29.88;33.06;101400.06;5089389;27;45342;-76
2023/07/12 11:09:44;;;;;;;;;0.00;0.00;;;;;29.85;33.26;101420.09;5090466;27;45523;-76
2023/07/12 11:12:11;;;;;;;;;0.00;0.00;;;;;29.77;32.11;101398.13;5094075;27;45269;-78
2023/07/12 11:14:37;;;;;;;;;1.67;0.67;;;;;29.80;32.88;101406.53;5111870;27;45389;-75
2023/07/12 11:17:12;;;;;;;;;1.00;1.00;;;;;29.73;32.83;101405.78;5081692;27;45343;-73
2023/07/12 11:19:40;;;;;;;;;0.00;0.00;;;;;29.78;32.92;101405.09;5077800;27;46614;-73
2023/07/12 11:22:23;;;;;;;;;0.00;0.00;;;;;29.71;32.92;101400.63;5084470;27;45283;-73
2023/07/12 11:25:00;;;;;;;;;0.00;0.00;;;;;29.76;33.30;101410.69;5074313;28;45394;-74
2023/07/12 11:27:34;;;;;;;;;0.33;0.00;;;;;29.75;32.78;101411.72;5089400;27;45398;-73